Sinegorsk — YJRC5 — position and weather

sailwx.info

Track history (hours):
 
Tides and Currents Weather Stations Pressure Air Temp Water Temp Dewpoint Dewpoint Depression Visibility Wind Speed Wind Dir Waves Ship Positions

Sinegorsk

Last reported at 2014-Aug-21 12:33 UTC. Time now 2014-Aug-21 14:10 UTC.
Position N 36°31' W 001°29'.

Length 133 m; draft 7.4 m.

Type: Cargo ship. MMSI: 576292000.

Date/timePositionNaut miles runAvg speedWind from/ knotsBaromVisibWave heightAir tempDewpointWater temp
2014-Aug-21 12:33N 36°31' W 001°29'2310.6
2014-Aug-21 10:21N 36°34' W 001°00'2210.6
2014-Aug-21 08:15N 36°38' W 000°33'810.3
2014-Aug-21 07:26N 36°39' W 000°23'9 9.8
2014-Aug-21 06:31N 36°40' W 000°12'9 9.7
2014-Aug-21 05:33N 36°41' W 000°00'9 9.2
2014-Aug-21 04:33N 36°43' E 000°11'10 9.7
2014-Aug-21 03:33N 36°44' E 000°23'1110.6
2014-Aug-21 02:30N 36°46' E 000°37'2110.1
2014-Aug-21 00:25N 36°49' E 001°03'9 9.8
2014-Aug-20 23:33N 36°50' E 001°13'1010.0
2014-Aug-20 22:33N 36°51' E 001°26'1010.0
2014-Aug-20 21:33N 36°52' E 001°38'11 9.9
2014-Aug-20 20:25N 36°54' E 001°52'9 9.8
2014-Aug-20 19:33N 36°55' E 002°03'11 9.9
2014-Aug-20 18:29N 36°56' E 002°16'1010.6
2014-Aug-20 17:33N 36°58' E 002°28'1111.2
2014-Aug-20 16:33N 36°59' E 002°42'3510.6
2014-Aug-20 13:15N 37°03' E 003°25'910.2
2014-Aug-20 12:23N 37°05' E 003°36'21510.3
2014-Aug-19 15:33N 37°32' E 008°04'11 9.6
2014-Aug-19 14:24N 37°34' E 008°18'7 8.6
2014-Aug-19 13:33N 37°35' E 008°27'9 8.8
2014-Aug-19 12:30N 37°36' E 008°39'10 9.2
2014-Aug-19 11:24N 37°37' E 008°51'21 9.0
2014-Aug-19 09:05N 37°38' E 009°18'8 9.7
2014-Aug-19 08:14N 37°38' E 009°28'7 9.9
2014-Aug-19 07:32N 37°38' E 009°37'49 9.8
2014-Aug-19 02:33N 37°35' E 010°38'1111.0
2014-Aug-19 01:33N 37°32' E 010°51'1111.0
2014-Aug-19 00:33N 37°28' E 011°04'1111.0
2014-Aug-18 23:33N 37°24' E 011°17'1111.0
2014-Aug-18 22:32N 37°19' E 011°30'3511.1
2014-Aug-18 19:25N 37°05' E 012°09'2010.7
2014-Aug-18 17:33N 36°59' E 012°33'1510.7
2014-Aug-18 16:10N 36°54' E 012°51'910.7
2014-Aug-18 15:19N 36°51' E 013°02'1010.4
2014-Aug-18 14:24N 36°48' E 013°13'910.3
2014-Aug-18 13:31N 36°46' E 013°24'1110.3
2014-Aug-18 12:29N 36°42' E 013°36'1010.3
2014-Aug-18 11:33N 36°40' E 013°48'1010.3
2014-Aug-18 10:33N 36°36' E 013°60'1010.1
2014-Aug-18 09:33N 36°33' E 014°12'1010.0
2014-Aug-18 08:33N 36°31' E 014°24'1010.2
2014-Aug-18 07:33N 36°28' E 014°36'413 9.4
2014-Aug-16 11:27N 36°25' E 023°10'9 9.8
2014-Aug-16 10:33N 36°30' E 023°19'1010.4
2014-Aug-16 09:33N 36°38' E 023°28'1110.3
2014-Aug-16 08:30N 36°45' E 023°38'1010.6
2014-Aug-16 07:33N 36°53' E 023°46'1110.9
2014-Aug-16 06:33N 37°02' E 023°54'1111.0
2014-Aug-16 05:33N 37°11' E 024°02'1211.8
2014-Aug-16 04:30N 37°21' E 024°11'1411.3
2014-Aug-16 03:18N 37°32' E 024°21'810.9
2014-Aug-16 02:33N 37°38' E 024°27'1510.1
2014-Aug-16 01:06N 37°52' E 024°34'5910.5
2014-Aug-15 19:25N 38°46' E 025°07'910.5
2014-Aug-15 18:33N 38°54' E 025°12'2211.1
2014-Aug-15 16:33N 39°13' E 025°26'1111.2
2014-Aug-15 15:33N 39°24' E 025°32'17110.1
2014-Aug-14 22:33N 40°54' E 028°42'1010.3
2014-Aug-14 21:33N 40°57' E 028°55'2 1.6
2014-Aug-14 20:32N 40°58' E 028°56'0 0.0
2014-Aug-14 19:33N 40°58' E 028°56'0 0.0
2014-Aug-14 18:21N 40°58' E 028°56'0 0.1
2014-Aug-14 17:33N 40°58' E 028°56'4 3.6
2014-Aug-14 16:25N 41°01' E 028°60'299 8.5
2014-Aug-13 05:24N 45°48' E 030°56'910.3
2014-Aug-13 04:33N 45°56' E 030°60'1010.4
2014-Aug-13 03:33N 46°06' E 031°04'10 9.9
2014-Aug-13 02:33N 46°14' E 030°54'1010.1
2014-Aug-13 01:34N 46°19' E 030°42'2 2.3
2014-Aug-13 00:33N 46°20' E 030°39'0 0.0
2014-Aug-12 23:34N 46°20' E 030°39'0 0.0
2014-Aug-12 22:34N 46°20' E 030°39'0 0.0
2014-Aug-12 21:33N 46°20' E 030°39'0 0.0
2014-Aug-12 20:34N 46°20' E 030°39'0 0.0
2014-Aug-12 19:33N 46°20' E 030°39'0 0.0
2014-Aug-12 18:33N 46°20' E 030°39'  
Track history (hours):
 
Tides and Currents Weather Stations Pressure Air Temp Water Temp Dewpoint Dewpoint Depression Visibility Wind Speed Wind Dir Waves Ship Positions

Sinegorsk

Last reported at 2014-Aug-21 12:33 UTC. Time now 2014-Aug-21 14:10 UTC.
Position N 36°31' W 001°29'.

Length 133 m; draft 7.4 m.

Type: Cargo ship. MMSI: 576292000.

Date/timePositionNaut miles runAvg speedWind from/ knotsBaromVisibWave heightAir tempDewpointWater temp
2014-Aug-21 12:33N 36°31' W 001°29'2310.6
2014-Aug-21 10:21N 36°34' W 001°00'2210.6
2014-Aug-21 08:15N 36°38' W 000°33'810.3
2014-Aug-21 07:26N 36°39' W 000°23'9 9.8
2014-Aug-21 06:31N 36°40' W 000°12'9 9.7
2014-Aug-21 05:33N 36°41' W 000°00'9 9.2
2014-Aug-21 04:33N 36°43' E 000°11'10 9.7
2014-Aug-21 03:33N 36°44' E 000°23'1110.6
2014-Aug-21 02:30N 36°46' E 000°37'2110.1
2014-Aug-21 00:25N 36°49' E 001°03'9 9.8
2014-Aug-20 23:33N 36°50' E 001°13'1010.0
2014-Aug-20 22:33N 36°51' E 001°26'1010.0
2014-Aug-20 21:33N 36°52' E 001°38'11 9.9
2014-Aug-20 20:25N 36°54' E 001°52'9 9.8
2014-Aug-20 19:33N 36°55' E 002°03'11 9.9
2014-Aug-20 18:29N 36°56' E 002°16'1010.6
2014-Aug-20 17:33N 36°58' E 002°28'1111.2
2014-Aug-20 16:33N 36°59' E 002°42'3510.6
2014-Aug-20 13:15N 37°03' E 003°25'910.2
2014-Aug-20 12:23N 37°05' E 003°36'21510.3
2014-Aug-19 15:33N 37°32' E 008°04'11 9.6
2014-Aug-19 14:24N 37°34' E 008°18'7 8.6
2014-Aug-19 13:33N 37°35' E 008°27'9 8.8
2014-Aug-19 12:30N 37°36' E 008°39'10 9.2
2014-Aug-19 11:24N 37°37' E 008°51'21 9.0
2014-Aug-19 09:05N 37°38' E 009°18'8 9.7
2014-Aug-19 08:14N 37°38' E 009°28'7 9.9
2014-Aug-19 07:32N 37°38' E 009°37'49 9.8
2014-Aug-19 02:33N 37°35' E 010°38'1111.0
2014-Aug-19 01:33N 37°32' E 010°51'1111.0
2014-Aug-19 00:33N 37°28' E 011°04'1111.0
2014-Aug-18 23:33N 37°24' E 011°17'1111.0
2014-Aug-18 22:32N 37°19' E 011°30'3511.1
2014-Aug-18 19:25N 37°05' E 012°09'2010.7
2014-Aug-18 17:33N 36°59' E 012°33'1510.7
2014-Aug-18 16:10N 36°54' E 012°51'910.7
2014-Aug-18 15:19N 36°51' E 013°02'1010.4
2014-Aug-18 14:24N 36°48' E 013°13'910.3
2014-Aug-18 13:31N 36°46' E 013°24'1110.3
2014-Aug-18 12:29N 36°42' E 013°36'1010.3
2014-Aug-18 11:33N 36°40' E 013°48'1010.3
2014-Aug-18 10:33N 36°36' E 013°60'1010.1
2014-Aug-18 09:33N 36°33' E 014°12'1010.0
2014-Aug-18 08:33N 36°31' E 014°24'1010.2
2014-Aug-18 07:33N 36°28' E 014°36'413 9.4
2014-Aug-16 11:27N 36°25' E 023°10'9 9.8
2014-Aug-16 10:33N 36°30' E 023°19'1010.4
2014-Aug-16 09:33N 36°38' E 023°28'1110.3
2014-Aug-16 08:30N 36°45' E 023°38'1010.6
2014-Aug-16 07:33N 36°53' E 023°46'1110.9
2014-Aug-16 06:33N 37°02' E 023°54'1111.0
2014-Aug-16 05:33N 37°11' E 024°02'1211.8
2014-Aug-16 04:30N 37°21' E 024°11'1411.3
2014-Aug-16 03:18N 37°32' E 024°21'810.9
2014-Aug-16 02:33N 37°38' E 024°27'1510.1
2014-Aug-16 01:06N 37°52' E 024°34'5910.5
2014-Aug-15 19:25N 38°46' E 025°07'910.5
2014-Aug-15 18:33N 38°54' E 025°12'2211.1
2014-Aug-15 16:33N 39°13' E 025°26'1111.2
2014-Aug-15 15:33N 39°24' E 025°32'17110.1
2014-Aug-14 22:33N 40°54' E 028°42'1010.3
2014-Aug-14 21:33N 40°57' E 028°55'2 1.6
2014-Aug-14 20:32N 40°58' E 028°56'0 0.0
2014-Aug-14 19:33N 40°58' E 028°56'0 0.0
2014-Aug-14 18:21N 40°58' E 028°56'0 0.1
2014-Aug-14 17:33N 40°58' E 028°56'4 3.6
2014-Aug-14 16:25N 41°01' E 028°60'299 8.5
2014-Aug-13 05:24N 45°48' E 030°56'910.3
2014-Aug-13 04:33N 45°56' E 030°60'1010.4
2014-Aug-13 03:33N 46°06' E 031°04'10 9.9
2014-Aug-13 02:33N 46°14' E 030°54'1010.1
2014-Aug-13 01:34N 46°19' E 030°42'2 2.3
2014-Aug-13 00:33N 46°20' E 030°39'0 0.0
2014-Aug-12 23:34N 46°20' E 030°39'0 0.0
2014-Aug-12 22:34N 46°20' E 030°39'0 0.0
2014-Aug-12 21:33N 46°20' E 030°39'0 0.0
2014-Aug-12 20:34N 46°20' E 030°39'0 0.0
2014-Aug-12 19:33N 46°20' E 030°39'0 0.0
2014-Aug-12 18:33N 46°20' E 030°39'  

Dump ship's entire track history